createdAt,value
2023-01-27T00:01:02.843Z,9.33
2023-01-27T00:03:30.661Z,11.77
2023-01-27T00:05:58.733Z,10.27
2023-01-27T00:08:26.449Z,12.43
2023-01-27T00:11:18.461Z,7.17
2023-01-27T00:13:46.587Z,7.77
2023-01-27T00:16:14.665Z,8.40
2023-01-27T00:18:42.523Z,8.37
2023-01-27T00:21:28.052Z,10.97
2023-01-27T00:24:13.363Z,9.03
2023-01-27T00:26:41.518Z,10.57
2023-01-27T00:29:10.728Z,11.70
2023-01-27T00:31:56.637Z,12.07
2023-01-27T00:34:24.471Z,12.20
2023-01-27T00:36:52.249Z,14.33
2023-01-27T00:39:20.021Z,15.63
2023-01-27T00:41:47.673Z,19.60
2023-01-27T00:44:16.800Z,16.07
2023-01-27T00:46:46.141Z,14.67
2023-01-27T00:49:14.353Z,14.33
2023-01-27T00:51:42.511Z,17.57
2023-01-27T00:54:10.170Z,15.27
2023-01-27T00:56:38.165Z,14.33
2023-01-27T00:59:06.274Z,11.57
2023-01-27T01:01:35.731Z,14.40
2023-01-27T01:04:03.908Z,15.30
2023-01-27T01:06:31.603Z,16.13
2023-01-27T01:08:59.621Z,19.00
2023-01-27T01:11:27.671Z,13.80
2023-01-27T01:13:56.512Z,12.90
2023-01-27T01:16:25.501Z,14.43
2023-01-27T01:18:54.729Z,16.03
2023-01-27T01:21:22.697Z,16.53
2023-01-27T01:23:50.739Z,16.13
2023-01-27T01:26:18.894Z,16.70
2023-01-27T01:28:47.077Z,16.80
2023-01-27T01:31:17.209Z,18.17
2023-01-27T01:33:45.696Z,20.50
2023-01-27T01:36:15.446Z,21.90
2023-01-27T01:38:43.380Z,19.87
2023-01-27T01:41:13.277Z,17.97
2023-01-27T01:43:41.010Z,16.80
2023-01-27T01:46:11.766Z,17.40
2023-01-27T01:48:42.819Z,14.13
2023-01-27T01:51:13.712Z,11.33
2023-01-27T01:53:45.420Z,12.93
2023-01-27T01:56:15.811Z,14.27
2023-01-27T01:58:45.172Z,14.87
2023-01-27T02:01:14.198Z,11.53
2023-01-27T02:03:43.563Z,11.50
2023-01-27T02:06:12.075Z,11.77
2023-01-27T02:08:41.398Z,12.93
2023-01-27T02:11:11.254Z,13.90
2023-01-27T02:13:39.369Z,16.07
2023-01-27T02:16:07.662Z,16.70
2023-01-27T02:18:35.435Z,17.20
2023-01-27T02:21:03.500Z,16.77
2023-01-27T02:23:39.004Z,17.03
2023-01-27T02:26:10.483Z,19.50
2023-01-27T02:28:38.552Z,17.10
2023-01-27T02:31:06.419Z,21.60
2023-01-27T02:33:34.398Z,18.83
2023-01-27T02:36:04.207Z,21.47
2023-01-27T02:38:34.215Z,29.17
2023-01-27T02:41:05.089Z,24.27
2023-01-27T02:43:34.851Z,24.40
2023-01-27T02:46:02.811Z,22.30
2023-01-27T02:48:30.804Z,26.77
2023-01-27T02:50:58.485Z,27.13
2023-01-27T02:53:26.556Z,22.43
2023-01-27T02:55:54.322Z,23.40
2023-01-27T02:58:22.010Z,21.27
2023-01-27T03:00:51.445Z,22.40
2023-01-27T03:03:20.414Z,16.67
2023-01-27T03:05:48.320Z,24.13
2023-01-27T03:08:16.013Z,21.40
2023-01-27T03:10:44.228Z,25.63
2023-01-27T03:13:12.060Z,20.57
2023-01-27T03:15:57.214Z,19.20
2023-01-27T03:18:26.782Z,17.27
2023-01-27T03:21:01.666Z,15.73
2023-01-27T03:23:29.474Z,19.00
2023-01-27T03:25:57.222Z,14.67
2023-01-27T03:28:25.156Z,17.57
2023-01-27T03:30:53.384Z,18.93
2023-01-27T03:33:21.543Z,16.60
2023-01-27T03:36:04.747Z,12.93
2023-01-27T03:38:49.891Z,14.20
2023-01-27T03:41:35.551Z,15.97
2023-01-27T03:44:20.856Z,15.80
2023-01-27T03:46:50.713Z,16.43
2023-01-27T03:49:18.546Z,18.40
2023-01-27T03:51:47.583Z,19.20
2023-01-27T03:54:16.234Z,18.90
2023-01-27T03:56:44.937Z,23.67
2023-01-27T03:59:12.667Z,32.20
2023-01-27T04:01:40.488Z,37.47
2023-01-27T04:04:26.133Z,34.73
2023-01-27T04:07:07.381Z,37.27
2023-01-27T04:09:36.549Z,38.60
2023-01-27T04:12:04.803Z,34.27
2023-01-27T04:14:33.329Z,35.40
2023-01-27T04:17:01.884Z,27.53
2023-01-27T04:19:29.976Z,32.03
2023-01-27T04:21:59.511Z,23.23
2023-01-27T04:24:27.276Z,21.13
2023-01-27T04:26:56.515Z,22.40
2023-01-27T04:29:24.997Z,20.40
2023-01-27T04:31:52.990Z,23.20
2023-01-27T04:34:21.239Z,23.17
2023-01-27T04:36:49.523Z,19.23
2023-01-27T04:39:19.436Z,17.93
2023-01-27T04:41:47.493Z,19.57
2023-01-27T04:44:15.554Z,18.03
2023-01-27T04:46:43.698Z,19.30
2023-01-27T04:49:14.289Z,13.37
2023-01-27T04:51:42.158Z,16.20
2023-01-27T04:54:10.042Z,18.53
2023-01-27T04:56:40.213Z,16.03
2023-01-27T04:59:09.141Z,11.67
2023-01-27T05:01:37.088Z,9.20
2023-01-27T05:04:04.948Z,15.87
2023-01-27T05:06:33.220Z,8.67
2023-01-27T05:09:01.490Z,8.30
2023-01-27T05:11:29.283Z,6.80
2023-01-27T05:13:59.563Z,8.70
2023-01-27T05:16:27.683Z,10.23
2023-01-27T05:18:56.326Z,11.43
2023-01-27T05:21:24.691Z,23.80
2023-01-27T05:23:52.646Z,22.73
2023-01-27T05:26:22.155Z,21.73
2023-01-27T05:28:51.160Z,26.93
2023-01-27T05:31:21.128Z,28.27
2023-01-27T05:33:50.078Z,34.20
2023-01-27T05:36:19.129Z,26.30
2023-01-27T05:38:46.940Z,26.37
2023-01-27T05:41:15.422Z,23.57
2023-01-27T05:43:44.374Z,18.90
2023-01-27T05:46:13.651Z,21.13
2023-01-27T05:48:43.707Z,20.10
2023-01-27T05:51:14.830Z,19.37
2023-01-27T05:53:43.073Z,27.77
2023-01-27T05:56:11.499Z,23.37
2023-01-27T05:58:39.735Z,18.03
2023-01-27T06:01:08.397Z,20.97
2023-01-27T06:03:36.411Z,16.70
2023-01-27T06:06:06.242Z,16.50
2023-01-27T06:08:34.008Z,15.10
2023-01-27T06:11:01.924Z,13.70
2023-01-27T06:13:30.282Z,13.13
2023-01-27T06:15:58.421Z,11.50
2023-01-27T06:18:26.263Z,13.60
2023-01-27T06:20:54.124Z,11.93
2023-01-27T06:23:23.300Z,12.73
2023-01-27T06:25:51.572Z,12.33
2023-01-27T06:28:30.081Z,11.53
2023-01-27T06:30:58.074Z,13.37
2023-01-27T06:33:28.701Z,15.23
2023-01-27T06:36:01.528Z,12.90
2023-01-27T06:38:32.851Z,11.57
2023-01-27T06:41:01.052Z,17.30
2023-01-27T06:43:28.842Z,14.87
2023-01-27T06:45:57.691Z,12.17
2023-01-27T06:48:25.969Z,10.07
2023-01-27T06:50:53.811Z,11.37
2023-01-27T06:53:21.735Z,16.00
2023-01-27T06:55:55.990Z,10.87
2023-01-27T06:58:23.740Z,17.57
2023-01-27T07:00:51.703Z,11.40
2023-01-27T07:03:19.511Z,9.57
2023-01-27T07:05:47.303Z,11.30
2023-01-27T07:08:15.441Z,11.00
2023-01-27T07:10:43.566Z,10.23
2023-01-27T07:13:13.508Z,11.43
2023-01-27T07:15:42.627Z,11.67
2023-01-27T07:18:11.014Z,9.73
2023-01-27T07:20:40.592Z,8.53
2023-01-27T07:23:08.570Z,9.87
2023-01-27T07:25:36.611Z,10.07
2023-01-27T07:28:05.760Z,9.83
2023-01-27T07:30:35.513Z,11.83
2023-01-27T07:33:06.369Z,10.50
2023-01-27T07:35:36.678Z,13.53
2023-01-27T07:38:05.061Z,9.50
2023-01-27T07:40:33.079Z,10.60
2023-01-27T07:43:00.908Z,11.73
2023-01-27T07:45:30.268Z,11.33
2023-01-27T07:48:02.814Z,14.70
2023-01-27T07:50:30.681Z,12.10
2023-01-27T07:53:00.082Z,16.80
2023-01-27T07:55:28.433Z,9.73
2023-01-27T07:57:56.257Z,11.17
2023-01-27T08:00:24.474Z,10.70
2023-01-27T08:02:52.970Z,11.63
2023-01-27T08:05:22.846Z,10.57
2023-01-27T08:07:50.747Z,16.67
2023-01-27T08:10:20.213Z,13.97
2023-01-27T08:12:48.168Z,14.53
2023-01-27T08:15:18.642Z,17.10
2023-01-27T08:17:54.018Z,10.47
2023-01-27T08:20:23.282Z,10.73
2023-01-27T08:22:51.232Z,11.53
2023-01-27T08:25:20.490Z,12.53
2023-01-27T08:27:50.655Z,13.03
2023-01-27T08:30:19.054Z,8.37
2023-01-27T08:32:48.069Z,10.53
2023-01-27T08:35:16.381Z,12.10
2023-01-27T08:37:48.241Z,10.50
2023-01-27T08:40:16.652Z,13.23
2023-01-27T08:42:44.613Z,9.03
2023-01-27T08:45:12.805Z,9.60
2023-01-27T08:47:40.724Z,8.83
2023-01-27T08:50:09.414Z,6.30
2023-01-27T08:52:37.743Z,6.80
2023-01-27T08:55:07.235Z,10.23
2023-01-27T08:57:36.880Z,9.90
2023-01-27T09:00:06.730Z,11.80
2023-01-27T09:02:34.679Z,9.40
2023-01-27T09:05:02.995Z,7.30
2023-01-27T09:07:31.539Z,10.13
2023-01-27T09:10:13.141Z,10.07
2023-01-27T09:12:43.998Z,11.97
2023-01-27T09:15:12.162Z,9.80
2023-01-27T09:17:39.894Z,13.77
2023-01-27T09:20:08.465Z,5.67
2023-01-27T09:22:36.811Z,11.63
2023-01-27T09:25:04.579Z,9.27
2023-01-27T09:27:39.292Z,12.33
2023-01-27T09:30:11.459Z,8.33
2023-01-27T09:32:39.393Z,6.07
2023-01-27T09:35:07.653Z,9.03
2023-01-27T09:37:39.838Z,8.57
2023-01-27T09:40:12.432Z,11.33
2023-01-27T09:42:58.477Z,6.37
2023-01-27T09:45:36.684Z,7.17
2023-01-27T09:48:12.302Z,7.30
2023-01-27T09:50:53.095Z,8.43
2023-01-27T09:53:28.305Z,7.57
2023-01-27T09:55:59.275Z,9.50
2023-01-27T09:58:30.353Z,10.50
2023-01-27T10:01:05.854Z,7.80
2023-01-27T10:03:43.659Z,10.77
2023-01-27T10:06:30.247Z,15.87
2023-01-27T10:09:17.088Z,18.90
2023-01-27T10:11:50.501Z,16.00
2023-01-27T10:14:23.453Z,14.97
2023-01-27T10:17:01.685Z,8.27
2023-01-27T10:19:34.791Z,9.03
2023-01-27T10:22:09.026Z,11.03
2023-01-27T10:24:44.359Z,16.27
2023-01-27T10:27:16.689Z,12.10
2023-01-27T10:29:46.714Z,15.43
2023-01-27T10:32:22.386Z,8.87
2023-01-27T10:34:54.044Z,12.50
2023-01-27T10:37:28.356Z,7.50
2023-01-27T10:40:01.356Z,9.10
2023-01-27T10:42:32.523Z,7.90
2023-01-27T10:45:20.332Z,8.13
2023-01-27T10:47:54.441Z,6.50
2023-01-27T10:50:24.769Z,22.53
2023-01-27T10:52:57.670Z,13.80
2023-01-27T10:55:27.186Z,16.50
2023-01-27T10:57:57.297Z,29.97
2023-01-27T11:03:23.335Z,13.07
2023-01-27T11:05:53.517Z,12.70
2023-01-27T11:08:23.544Z,19.17
2023-01-27T11:11:12.048Z,20.17
2023-01-27T11:13:40.110Z,7.77
2023-01-27T11:16:14.283Z,11.67
2023-01-27T11:18:46.213Z,15.50
2023-01-27T11:21:19.270Z,12.27
2023-01-27T11:23:51.922Z,9.93
2023-01-27T11:26:25.664Z,12.37
2023-01-27T11:28:56.906Z,9.03
2023-01-27T11:31:30.015Z,18.37
2023-01-27T11:34:08.114Z,14.30
2023-01-27T11:36:37.176Z,6.40
2023-01-27T11:39:06.899Z,10.90
2023-01-27T11:41:36.730Z,8.53
2023-01-27T11:44:08.303Z,9.30
2023-01-27T11:46:36.913Z,8.40
2023-01-27T11:49:07.714Z,10.13
2023-01-27T11:51:37.469Z,8.77
2023-01-27T11:54:07.600Z,10.47
2023-01-27T11:56:37.099Z,11.73
2023-01-27T11:59:06.858Z,9.20
2023-01-27T12:01:40.069Z,11.70
2023-01-27T12:04:12.765Z,10.87
2023-01-27T12:06:44.837Z,9.73
2023-01-27T12:09:30.739Z,9.13
2023-01-27T12:12:10.607Z,10.87
2023-01-27T12:14:38.490Z,10.67
2023-01-27T12:17:07.331Z,12.00
2023-01-27T12:19:41.503Z,10.00
2023-01-27T12:22:11.316Z,14.53
2023-01-27T12:24:41.489Z,9.63
2023-01-27T12:27:17.612Z,10.80
2023-01-27T12:29:48.895Z,12.40
2023-01-27T12:32:18.834Z,13.97
2023-01-27T12:34:50.892Z,9.63
2023-01-27T12:37:23.227Z,9.17
2023-01-27T12:39:53.303Z,8.07
2023-01-27T12:42:47.317Z,6.07
2023-01-27T12:45:26.078Z,7.23
2023-01-27T12:48:01.840Z,7.63
2023-01-27T12:50:31.717Z,7.60
2023-01-27T12:53:05.528Z,9.77
2023-01-27T12:55:34.293Z,9.27
2023-01-27T12:58:04.454Z,8.47
2023-01-27T13:00:33.184Z,6.20
2023-01-27T13:03:05.027Z,8.80
2023-01-27T13:05:38.774Z,7.10
2023-01-27T13:08:07.327Z,6.47
2023-01-27T13:10:35.803Z,6.33
2023-01-27T13:13:05.247Z,7.53
2023-01-27T13:15:33.279Z,7.63
2023-01-27T13:18:01.651Z,7.93
2023-01-27T13:20:30.449Z,8.27
2023-01-27T13:23:01.862Z,7.17
2023-01-27T13:25:31.024Z,8.10
2023-01-27T13:27:59.903Z,6.60
2023-01-27T13:30:32.301Z,6.33
2023-01-27T13:33:02.721Z,7.07
2023-01-27T13:35:33.636Z,7.23
2023-01-27T13:38:04.199Z,7.20
2023-01-27T13:40:33.466Z,7.90
2023-01-27T13:43:05.512Z,7.93
2023-01-27T13:45:38.816Z,7.40
2023-01-27T13:48:10.466Z,7.60
2023-01-27T13:50:41.643Z,7.27
2023-01-27T13:53:11.880Z,9.10
2023-01-27T13:55:51.352Z,8.40
2023-01-27T13:58:22.900Z,7.80
2023-01-27T14:00:57.291Z,11.30
2023-01-27T14:03:35.237Z,9.73
2023-01-27T14:06:10.078Z,8.23
2023-01-27T14:08:56.254Z,9.27
2023-01-27T14:11:27.864Z,7.77
2023-01-27T14:14:03.868Z,8.20
2023-01-27T14:16:36.677Z,9.73
2023-01-27T14:19:07.120Z,8.30
2023-01-27T14:21:44.352Z,8.27
2023-01-27T14:24:24.494Z,9.67
2023-01-27T14:26:55.512Z,7.97
2023-01-27T14:29:28.752Z,8.60
2023-01-27T14:32:00.225Z,9.00
2023-01-27T14:34:33.907Z,8.53
2023-01-27T14:37:07.649Z,7.40
2023-01-27T14:39:40.816Z,9.07
2023-01-27T14:42:11.450Z,9.07
2023-01-27T14:44:55.840Z,9.60
2023-01-27T14:47:33.145Z,9.30
2023-01-27T14:50:08.423Z,9.07
2023-01-27T14:52:44.384Z,11.07
2023-01-27T14:55:26.983Z,9.37
2023-01-27T14:57:59.101Z,8.60
2023-01-27T15:00:32.112Z,8.37
2023-01-27T15:03:05.102Z,8.63
2023-01-27T15:05:38.028Z,8.77
2023-01-27T15:08:10.789Z,7.83
2023-01-27T15:10:42.513Z,9.40
2023-01-27T15:13:25.083Z,7.63
2023-01-27T15:16:00.095Z,8.53
2023-01-27T15:18:35.098Z,6.83
2023-01-27T15:21:12.776Z,7.97
2023-01-27T15:23:55.684Z,8.07
2023-01-27T15:26:24.451Z,10.07
2023-01-27T15:28:52.763Z,12.57
2023-01-27T15:31:27.164Z,12.50
2023-01-27T15:33:58.443Z,10.17
2023-01-27T15:36:34.478Z,13.27
2023-01-27T15:39:03.198Z,10.47
2023-01-27T15:41:33.433Z,12.57
2023-01-27T15:44:06.047Z,10.03
2023-01-27T15:46:37.021Z,11.17
2023-01-27T15:49:06.075Z,12.87
2023-01-27T15:51:36.764Z,12.03
2023-01-27T15:54:05.233Z,9.33
2023-01-27T15:56:43.171Z,9.40
2023-01-27T15:59:15.324Z,8.00
2023-01-27T16:01:44.632Z,7.93
2023-01-27T16:04:16.917Z,8.67
2023-01-27T16:06:52.538Z,9.73
2023-01-27T16:09:29.525Z,9.20
2023-01-27T16:12:00.950Z,9.73
2023-01-27T16:14:49.280Z,8.80
2023-01-27T16:17:21.594Z,10.70
2023-01-27T16:19:54.268Z,8.67
2023-01-27T16:22:23.895Z,9.07
2023-01-27T16:24:56.420Z,9.23
2023-01-27T16:27:33.477Z,8.40
2023-01-27T16:30:08.494Z,8.03
2023-01-27T16:32:39.408Z,10.37
2023-01-27T16:35:08.568Z,8.83
2023-01-27T16:37:39.269Z,9.13
2023-01-27T16:40:14.562Z,9.10
2023-01-27T16:42:46.403Z,9.07
2023-01-27T16:45:18.715Z,10.37
2023-01-27T16:47:50.113Z,9.93
2023-01-27T16:50:35.298Z,8.90
2023-01-27T16:53:04.863Z,7.80
2023-01-27T16:55:33.175Z,9.87
2023-01-27T16:58:01.668Z,7.20
2023-01-27T17:00:30.556Z,8.30
2023-01-27T17:03:00.764Z,13.50
2023-01-27T17:05:28.790Z,14.33
2023-01-27T17:08:04.019Z,7.67
2023-01-27T17:10:35.660Z,7.53
2023-01-27T17:13:03.891Z,8.67
2023-01-27T17:15:34.891Z,10.97
2023-01-27T17:18:05.862Z,12.93
2023-01-27T17:20:35.648Z,13.13
2023-01-27T17:23:05.602Z,9.17
2023-01-27T17:25:34.831Z,7.83
2023-01-27T17:28:04.587Z,8.67
2023-01-27T17:30:35.483Z,7.73
2023-01-27T17:33:06.494Z,11.27
2023-01-27T17:35:35.714Z,12.30
2023-01-27T17:38:11.311Z,9.70
2023-01-27T17:40:41.555Z,8.17
2023-01-27T17:43:26.084Z,8.20
2023-01-27T17:46:09.102Z,7.90
2023-01-27T17:48:41.332Z,9.40
2023-01-27T17:51:09.924Z,12.70
2023-01-27T17:53:40.753Z,9.73
2023-01-27T17:56:12.511Z,8.17
2023-01-27T17:58:40.316Z,8.97
2023-01-27T18:01:09.469Z,10.33
2023-01-27T18:03:38.946Z,10.40
2023-01-27T18:06:10.706Z,8.73
2023-01-27T18:08:38.651Z,7.97
2023-01-27T18:11:10.281Z,12.57
2023-01-27T18:13:39.349Z,9.37
2023-01-27T18:16:14.098Z,7.30
2023-01-27T18:18:43.698Z,7.07
2023-01-27T18:21:16.751Z,10.30
2023-01-27T18:23:46.767Z,6.03
2023-01-27T18:26:23.295Z,7.43
2023-01-27T18:28:53.529Z,9.87
2023-01-27T18:31:23.467Z,12.97
2023-01-27T18:34:00.035Z,9.60
2023-01-27T18:36:35.537Z,13.60
2023-01-27T18:39:04.378Z,11.57
2023-01-27T18:41:35.499Z,10.27
2023-01-27T18:44:04.163Z,8.13
2023-01-27T18:46:32.023Z,10.57
2023-01-27T18:49:01.915Z,7.90
2023-01-27T18:51:29.935Z,6.93
2023-01-27T18:53:57.679Z,8.87
2023-01-27T18:56:25.502Z,6.67
2023-01-27T18:58:54.363Z,8.47
2023-01-27T19:01:23.994Z,7.60
2023-01-27T19:03:52.485Z,7.00
2023-01-27T19:06:22.072Z,8.23
2023-01-27T19:08:52.210Z,8.97
2023-01-27T19:11:19.863Z,8.17
2023-01-27T19:13:48.831Z,7.03
2023-01-27T19:16:17.964Z,6.40
2023-01-27T19:18:45.962Z,7.80
2023-01-27T19:21:15.094Z,8.63
2023-01-27T19:23:45.056Z,9.07
2023-01-27T19:26:16.575Z,10.47
2023-01-27T19:28:45.482Z,7.73
2023-01-27T19:31:13.377Z,8.07
2023-01-27T19:33:44.001Z,8.47
2023-01-27T19:36:23.764Z,8.00
2023-01-27T19:38:56.918Z,8.23
2023-01-27T19:41:24.675Z,10.23
2023-01-27T19:43:52.580Z,7.17
2023-01-27T19:46:23.437Z,8.10
2023-01-27T19:48:52.049Z,9.40
2023-01-27T19:51:20.283Z,17.77
2023-01-27T19:53:48.210Z,7.17
2023-01-27T19:56:18.387Z,11.70
2023-01-27T19:58:50.017Z,10.63
2023-01-27T20:01:18.229Z,8.17
2023-01-27T20:03:47.654Z,14.00
2023-01-27T20:06:17.207Z,13.17
2023-01-27T20:08:45.088Z,8.60
2023-01-27T20:11:28.972Z,7.23
2023-01-27T20:13:56.899Z,8.13
2023-01-27T20:16:25.868Z,8.03
2023-01-27T20:18:54.145Z,6.93
2023-01-27T20:21:25.233Z,7.47
2023-01-27T20:23:53.230Z,6.70
2023-01-27T20:26:22.758Z,8.37
2023-01-27T20:28:51.958Z,6.90
2023-01-27T20:31:22.816Z,8.23
2023-01-27T20:33:51.116Z,7.03
2023-01-27T20:36:19.710Z,8.40
2023-01-27T20:38:47.709Z,6.90
2023-01-27T20:41:16.651Z,10.20
2023-01-27T20:43:45.801Z,9.07
2023-01-27T20:46:15.281Z,8.97
2023-01-27T20:48:43.588Z,8.67
2023-01-27T20:51:13.192Z,11.00
2023-01-27T20:53:45.730Z,10.63
2023-01-27T20:56:14.557Z,11.17
2023-01-27T20:58:42.516Z,10.30
2023-01-27T21:01:12.757Z,9.33
2023-01-27T21:03:40.915Z,10.17
2023-01-27T21:06:09.513Z,10.93
2023-01-27T21:08:37.396Z,12.63
2023-01-27T21:11:06.017Z,10.53
2023-01-27T21:13:34.089Z,8.33
2023-01-27T21:16:02.384Z,10.90
2023-01-27T21:18:31.598Z,8.90
2023-01-27T21:21:02.646Z,8.43
2023-01-27T21:23:31.531Z,8.67
2023-01-27T21:26:04.078Z,8.30
2023-01-27T21:28:32.979Z,7.00
2023-01-27T21:31:05.795Z,5.97
2023-01-27T21:33:37.155Z,6.73
2023-01-27T21:36:05.048Z,7.77
2023-01-27T21:38:32.945Z,6.00
2023-01-27T21:41:05.080Z,3.50
2023-01-27T21:43:50.689Z,5.67
2023-01-27T21:46:18.988Z,5.13
2023-01-27T21:48:48.427Z,5.67
2023-01-27T21:51:16.522Z,4.73
2023-01-27T21:53:44.461Z,5.20
2023-01-27T21:56:12.471Z,5.87
2023-01-27T21:58:40.460Z,5.17
2023-01-27T22:01:10.805Z,6.17
2023-01-27T22:03:39.618Z,6.13
2023-01-27T22:06:09.786Z,4.70
2023-01-27T22:08:38.031Z,5.13
2023-01-27T22:11:06.104Z,4.20
2023-01-27T22:13:34.179Z,5.00
2023-01-27T22:16:01.993Z,6.57
2023-01-27T22:18:30.251Z,5.90
2023-01-27T22:20:58.163Z,6.40
2023-01-27T22:23:27.311Z,4.70
2023-01-27T22:25:55.255Z,5.40
2023-01-27T22:28:24.300Z,6.83
2023-01-27T22:30:52.332Z,6.20
2023-01-27T22:33:20.469Z,5.77
2023-01-27T22:35:48.312Z,5.57
2023-01-27T22:38:16.000Z,6.80
2023-01-27T22:40:45.351Z,6.80
2023-01-27T22:43:13.260Z,6.33
2023-01-27T22:45:41.709Z,5.73
2023-01-27T22:48:09.992Z,5.93
2023-01-27T22:50:40.616Z,5.83
2023-01-27T22:53:08.491Z,5.87
2023-01-27T22:55:36.540Z,7.20
2023-01-27T22:58:05.787Z,8.37
2023-01-27T23:00:33.880Z,7.50
2023-01-27T23:03:02.040Z,7.10
2023-01-27T23:05:29.733Z,6.87
2023-01-27T23:07:57.513Z,7.53
2023-01-27T23:10:25.230Z,8.03
2023-01-27T23:12:53.029Z,8.63
2023-01-27T23:15:22.369Z,6.13
2023-01-27T23:17:50.281Z,7.93
2023-01-27T23:20:18.364Z,6.83
2023-01-27T23:22:46.552Z,7.77
2023-01-27T23:25:14.525Z,8.87
2023-01-27T23:27:43.317Z,7.67
2023-01-27T23:30:12.409Z,6.13
2023-01-27T23:32:41.597Z,5.83
2023-01-27T23:35:09.691Z,6.83
2023-01-27T23:37:37.531Z,6.53
2023-01-27T23:40:05.658Z,7.50
2023-01-27T23:42:33.773Z,6.07
2023-01-27T23:45:01.532Z,6.47
2023-01-27T23:47:29.795Z,6.40
2023-01-27T23:49:59.502Z,6.67
2023-01-27T23:52:27.329Z,7.10
2023-01-27T23:54:55.141Z,6.70
2023-01-27T23:57:23.646Z,7.20
2023-01-27T23:59:51.608Z,5.47
